Time;durP1;ratioP1;P1;durP2;ratioP2;P2;SDS_P1;SDS_P2;PMS_P1;PMS_P2;Temp;Humidity;BMP_temperature;BMP_pressure;BME280_temperature;BME280_humidity;BME280_pressure;Samples;Min_cycle;Max_cycle;Signal;HPM_P1;HPM_P2
2021/05/18 00:00:27;;;;;;;2.10;0.52;;;14.40;73.30;;;;;;2343933;54;21133;-72
2021/05/18 00:02:53;;;;;;;1.90;0.57;;;14.40;73.50;;;;;;2334529;54;20958;-72
2021/05/18 00:05:20;;;;;;;2.05;0.50;;;14.40;73.30;;;;;;2348565;52;21499;-72
2021/05/18 00:07:58;;;;;;;2.70;0.70;;;14.40;73.10;;;;;;2344267;54;20981;-72
2021/05/18 00:13:24;;;;;;;2.60;0.65;;;14.40;73.10;;;;;;2313410;55;21084;-74
2021/05/18 00:15:50;;;;;;;1.45;0.52;;;14.40;72.90;;;;;;2339343;54;20905;-73
2021/05/18 00:18:17;;;;;;;1.12;0.50;;;14.30;72.80;;;;;;2432960;53;21572;-74
2021/05/18 00:20:43;;;;;;;1.17;0.50;;;14.30;72.90;;;;;;2327708;54;21053;-73
2021/05/18 00:23:10;;;;;;;3.40;0.47;;;14.30;73.00;;;;;;2326248;54;20930;-73
2021/05/18 00:25:37;;;;;;;1.55;0.50;;;14.20;73.10;;;;;;2343005;55;21434;-74
2021/05/18 00:28:03;;;;;;;1.62;0.60;;;14.20;73.00;;;;;;2334416;54;20940;-73
2021/05/18 00:30:29;;;;;;;2.00;0.80;;;14.20;72.90;;;;;;2331967;54;21072;-72
2021/05/18 00:32:55;;;;;;;2.75;0.60;;;14.20;73.10;;;;;;2343060;55;21040;-72
2021/05/18 00:35:22;;;;;;;1.83;0.70;;;14.20;73.20;;;;;;2551519;53;20968;-73
2021/05/18 00:37:48;;;;;;;1.20;0.50;;;14.10;73.10;;;;;;2374407;53;21477;-73
2021/05/18 00:40:17;;;;;;;1.48;0.57;;;14.20;73.40;;;;;;2323904;54;20957;-73
2021/05/18 00:42:49;;;;;;;2.05;0.50;;;14.10;73.40;;;;;;2584352;53;21525;-73
2021/05/18 00:45:21;;;;;;;2.25;0.50;;;14.20;73.50;;;;;;2336851;54;21920;-72
2021/05/18 00:47:48;;;;;;;1.98;0.50;;;14.20;73.70;;;;;;2389092;53;20928;-73
2021/05/18 00:50:14;;;;;;;1.30;0.50;;;14.20;73.80;;;;;;2342699;55;20965;-72
2021/05/18 00:52:41;;;;;;;1.33;0.40;;;14.20;73.90;;;;;;2342493;55;20941;-73
2021/05/18 00:55:17;;;;;;;3.12;0.68;;;14.20;73.60;;;;;;2342440;55;21017;-73
2021/05/18 01:00:29;;;;;;;1.67;0.47;;;14.20;73.20;;;;;;2323121;55;20949;-73
2021/05/18 01:02:55;;;;;;;0.77;0.50;;;14.10;73.40;;;;;;2342312;55;21398;-72
2021/05/18 01:06:18;;;;;;;2.22;0.68;;;14.20;73.50;;;;;;2342333;55;20933;-73
2021/05/18 01:08:44;;;;;;;0.80;0.35;;;14.10;73.50;;;;;;2406331;53;21004;-74
2021/05/18 01:11:11;;;;;;;1.30;0.52;;;14.20;73.30;;;;;;2515165;53;20993;-73
2021/05/18 01:13:38;;;;;;;1.83;0.50;;;14.10;73.00;;;;;;2342249;55;20980;-74
2021/05/18 01:16:04;;;;;;;3.45;0.43;;;14.10;73.20;;;;;;2342182;55;20901;-73
2021/05/18 01:18:42;;;;;;;1.08;0.50;;;14.10;73.20;;;;;;2342882;54;20973;-74
2021/05/18 01:21:10;;;;;;;1.10;0.50;;;14.10;73.20;;;;;;2341746;54;20961;-74
2021/05/18 01:23:36;;;;;;;2.08;0.50;;;14.10;73.30;;;;;;2344652;54;21802;-73
2021/05/18 01:26:03;;;;;;;0.88;0.40;;;14.00;73.40;;;;;;2560785;53;20941;-72
2021/05/18 01:28:29;;;;;;;0.65;0.40;;;14.00;73.40;;;;;;2324093;54;20953;-73
2021/05/18 01:30:56;;;;;;;1.37;0.50;;;14.00;73.60;;;;;;2340613;54;20925;-73
2021/05/18 01:33:23;;;;;;;1.20;0.50;;;14.00;73.60;;;;;;2355194;53;20917;-74
2021/05/18 01:35:49;;;;;;;1.50;0.43;;;14.00;73.80;;;;;;2342392;55;20909;-73
2021/05/18 01:38:25;;;;;;;2.40;0.60;;;14.00;73.80;;;;;;2409398;53;21617;-73
2021/05/18 01:43:39;;;;;;;0.95;0.40;;;14.10;73.90;;;;;;2341291;54;21458;-74
2021/05/18 01:46:06;;;;;;;1.55;0.47;;;14.00;73.80;;;;;;2589126;53;20922;-73
2021/05/18 01:48:35;;;;;;;1.45;0.50;;;14.00;73.70;;;;;;2312150;55;21023;-73
2021/05/18 01:51:02;;;;;;;1.90;0.60;;;14.00;73.80;;;;;;2552350;53;21755;-73
2021/05/18 01:53:28;;;;;;;3.00;0.93;;;14.00;73.70;;;;;;2342367;55;20913;-71
2021/05/18 01:56:19;;;;;;;0.77;0.40;;;14.00;73.80;;;;;;2325689;54;20937;-73
2021/05/18 01:58:48;;;;;;;1.75;0.50;;;14.00;73.80;;;;;;2342727;55;20997;-74
2021/05/18 02:01:14;;;;;;;1.40;0.50;;;14.00;73.90;;;;;;2342235;55;20972;-74
2021/05/18 02:03:42;;;;;;;1.00;0.45;;;14.00;73.90;;;;;;2357529;53;21380;-73
2021/05/18 02:06:08;;;;;;;1.23;0.50;;;14.00;73.80;;;;;;2318162;54;20939;-73
2021/05/18 02:08:35;;;;;;;2.05;0.50;;;14.00;74.00;;;;;;2330217;54;21013;-73
2021/05/18 02:11:01;;;;;;;1.70;0.45;;;14.00;74.20;;;;;;2322174;54;20996;-73
2021/05/18 02:13:27;;;;;;;0.52;0.30;;;14.00;74.20;;;;;;2323208;54;20957;-73
2021/05/18 02:16:06;;;;;;;0.85;0.40;;;14.00;74.20;;;;;;2342173;54;20993;-72
2021/05/18 02:18:49;;;;;;;0.75;0.50;;;14.00;74.20;;;;;;2344296;53;20964;-72
2021/05/18 02:21:39;;;;;;;0.50;0.32;;;14.00;74.30;;;;;;2342184;54;21601;-72
2021/05/18 02:26:50;;;;;;;1.02;0.45;;;14.00;74.20;;;;;;2315182;53;20973;-73
2021/05/18 02:29:16;;;;;;;1.75;0.52;;;14.10;74.30;;;;;;2315007;53;20949;-73
2021/05/18 02:31:43;;;;;;;0.88;0.37;;;14.00;74.30;;;;;;2314941;54;20937;-73
2021/05/18 02:34:09;;;;;;;1.12;0.40;;;14.10;74.40;;;;;;2320163;54;21032;-73
2021/05/18 02:36:36;;;;;;;0.95;0.40;;;14.10;74.50;;;;;;2343019;54;21537;-73
2021/05/18 02:39:03;;;;;;;0.98;0.37;;;14.10;74.40;;;;;;2329215;54;21308;-73
2021/05/18 02:41:29;;;;;;;0.85;0.40;;;14.10;74.40;;;;;;2342603;55;20981;-73
2021/05/18 02:50:43;;;;;;;1.10;0.50;;;14.10;74.30;;;;;;2554501;53;21792;-73
2021/05/18 02:53:13;;;;;;;0.90;0.40;;;14.10;74.40;;;;;;2331673;54;21048;-73
2021/05/18 03:00:04;;;;;;;1.00;0.52;;;14.10;74.90;;;;;;2336523;54;21541;-71
2021/05/18 03:02:57;;;;;;;;;;;14.10;73.70;;;;;;2458180;53;21004;-73
2021/05/18 03:05:25;;;;;;;0.70;0.30;;;14.10;73.00;;;;;;2558869;53;20676;-73
2021/05/18 03:07:53;;;;;;;1.70;0.50;;;14.10;73.50;;;;;;2341737;55;21435;-72
2021/05/18 03:10:21;;;;;;;1.40;0.37;;;14.00;73.50;;;;;;2588321;53;20957;-72
2021/05/18 03:12:47;;;;;;;2.40;0.50;;;14.00;73.70;;;;;;2322055;54;21757;-73
2021/05/18 03:15:14;;;;;;;1.15;0.40;;;13.90;73.80;;;;;;2339933;54;20993;-73
2021/05/18 03:17:40;;;;;;;1.55;0.50;;;13.90;73.90;;;;;;2505574;53;20984;-73
2021/05/18 03:20:08;;;;;;;1.15;0.40;;;13.90;74.10;;;;;;2339271;54;21821;-71
2021/05/18 03:22:34;;;;;;;1.65;0.55;;;13.90;74.20;;;;;;2508919;53;21008;-71
2021/05/18 03:25:01;;;;;;;0.85;0.40;;;13.90;74.30;;;;;;2409265;54;20984;-74
2021/05/18 03:27:29;;;;;;;2.30;0.47;;;13.90;74.40;;;;;;2556874;53;20944;-73
2021/05/18 03:29:55;;;;;;;1.02;0.43;;;13.90;74.50;;;;;;2494542;53;20957;-73
2021/05/18 03:35:07;;;;;;;0.93;0.40;;;13.90;74.40;;;;;;2377085;53;20955;-73
2021/05/18 03:37:52;;;;;;;1.12;0.47;;;13.90;74.40;;;;;;2324104;54;20972;-73
2021/05/18 03:40:19;;;;;;;1.55;0.55;;;13.90;74.50;;;;;;2538316;53;21481;-74
2021/05/18 03:42:53;;;;;;;1.37;0.50;;;13.90;74.50;;;;;;2588553;53;21430;-74
2021/05/18 03:45:25;;;;;;;1.48;0.50;;;13.80;75.10;;;;;;2318899;54;20972;-72
2021/05/18 03:53:43;;;;;;;1.37;0.57;;;13.80;74.40;;;;;;2496447;53;21081;-74
2021/05/18 03:59:06;;;;;;;1.37;0.60;;;13.80;74.60;;;;;;2315248;54;21015;-74
2021/05/18 04:04:23;;;;;;;2.97;0.65;;;13.80;74.80;;;;;;2306426;55;21731;-73
2021/05/18 04:24:16;;;;;;;2.60;0.85;;;13.80;74.80;;;;;;2342413;55;21500;-74
2021/05/18 04:48:48;;;;;;;2.10;0.68;;;13.70;74.70;;;;;;2341903;55;20926;-74
2021/05/18 05:08:00;;;;;;;1.20;0.60;;;13.70;74.70;;;;;;2311021;55;21527;-73
2021/05/18 05:14:24;;;;;;;0.93;0.50;;;13.70;75.40;;;;;;2314985;55;21479;-72
2021/05/18 05:16:52;;;;;;;2.00;0.62;;;13.70;75.70;;;;;;2312198;55;20948;-73
2021/05/18 05:19:19;;;;;;;1.73;0.70;;;13.70;75.90;;;;;;2342338;54;21033;-73
2021/05/18 05:21:45;;;;;;;2.22;0.70;;;13.70;76.10;;;;;;2327248;54;20967;-74
2021/05/18 05:24:13;;;;;;;1.48;0.62;;;13.70;76.20;;;;;;2334355;54;20988;-74
2021/05/18 05:26:40;;;;;;;1.80;0.70;;;13.70;76.20;;;;;;2590705;53;21017;-74
2021/05/18 05:29:06;;;;;;;2.03;0.73;;;13.80;76.40;;;;;;2431915;53;20961;-72
2021/05/18 05:31:33;;;;;;;1.80;0.70;;;13.80;76.40;;;;;;2423405;53;20938;-74
2021/05/18 05:34:00;;;;;;;1.55;0.60;;;13.80;76.40;;;;;;2343496;54;21076;-73
2021/05/18 05:36:27;;;;;;;3.30;0.90;;;13.80;76.40;;;;;;2587711;53;20996;-73
2021/05/18 05:39:00;;;;;;;1.52;0.60;;;13.90;76.40;;;;;;2337435;54;20973;-74
2021/05/18 05:41:29;;;;;;;2.15;0.77;;;13.90;76.50;;;;;;2348985;54;20985;-72
2021/05/18 05:43:55;;;;;;;1.67;0.80;;;13.90;76.30;;;;;;2585126;53;21005;-74
2021/05/18 05:46:22;;;;;;;2.08;1.00;;;14.00;76.40;;;;;;2400256;54;20949;-73
2021/05/18 05:48:52;;;;;;;1.92;0.85;;;14.00;76.20;;;;;;2334618;53;21005;-74
2021/05/18 05:51:20;;;;;;;2.15;0.82;;;14.00;75.80;;;;;;2575527;53;20897;-74
2021/05/18 05:53:47;;;;;;;2.10;0.80;;;14.00;75.80;;;;;;2490305;53;20958;-72
2021/05/18 05:56:15;;;;;;;2.47;1.10;;;14.00;75.80;;;;;;2344139;55;21375;-74
2021/05/18 05:58:42;;;;;;;2.75;0.75;;;14.00;76.00;;;;;;2343789;54;21041;-74
2021/05/18 06:01:09;;;;;;;2.05;0.77;;;14.00;76.10;;;;;;2565327;53;21004;-75
2021/05/18 06:03:35;;;;;;;2.12;0.90;;;14.10;76.10;;;;;;2346382;54;20925;-73
2021/05/18 06:06:03;;;;;;;1.75;0.80;;;14.10;76.30;;;;;;2437194;54;20981;-73
2021/05/18 06:08:31;;;;;;;1.55;0.70;;;14.10;76.50;;;;;;2344149;54;20925;-72
2021/05/18 06:11:04;;;;;;;2.15;0.82;;;14.10;76.70;;;;;;2326307;54;20950;-74
2021/05/18 06:42:15;;;;;;;2.10;0.60;;;14.70;76.90;;;;;;2343734;55;20989;-74
2021/05/18 06:47:34;;;;;;;2.60;0.60;;;14.80;77.40;;;;;;2331166;54;21091;-73
2021/05/18 06:53:31;;;;;;;3.15;1.08;;;14.90;77.20;;;;;;2590235;52;20942;-72
2021/05/18 06:55:59;;;;;;;2.35;0.85;;;15.00;76.90;;;;;;2451380;52;21081;-74
2021/05/18 06:58:48;;;;;;;3.50;1.50;;;15.00;76.80;;;;;;2443413;52;20953;-72
2021/05/18 07:01:15;;;;;;;4.45;1.27;;;15.10;75.90;;;;;;2466380;52;20924;-73
2021/05/18 07:03:49;;;;;;;4.37;1.77;;;15.10;76.10;;;;;;2339180;54;20941;-73
2021/05/18 07:10:33;;;;;;;3.15;1.10;;;15.20;75.90;;;;;;2342114;54;20972;-73
2021/05/18 07:12:59;;;;;;;3.25;1.00;;;15.20;75.60;;;;;;2343550;54;21038;-72
2021/05/18 07:15:27;;;;;;;2.50;0.80;;;15.20;76.30;;;;;;2343021;54;20922;-72
2021/05/18 07:17:55;;;;;;;2.78;0.77;;;15.30;77.10;;;;;;2343176;54;20914;-72
2021/05/18 07:20:24;;;;;;;2.12;0.60;;;15.40;77.50;;;;;;2342610;54;21003;-74
2021/05/18 07:22:55;;;;;;;1.85;0.90;;;15.50;77.40;;;;;;2343623;54;20915;-73
2021/05/18 07:25:21;;;;;;;2.85;0.93;;;15.60;77.20;;;;;;2558552;52;21573;-72
2021/05/18 07:27:47;;;;;;;4.12;1.00;;;15.70;76.30;;;;;;2343518;54;21013;-73
2021/05/18 07:30:15;;;;;;;3.42;1.33;;;15.70;76.20;;;;;;2338637;54;21016;-73
2021/05/18 07:32:42;;;;;;;4.25;1.55;;;15.80;76.20;;;;;;2346983;54;20934;-74
2021/05/18 07:35:11;;;;;;;4.10;1.62;;;15.80;75.40;;;;;;2335788;54;20926;-74
2021/05/18 07:37:37;;;;;;;5.80;2.85;;;15.90;75.60;;;;;;2370968;53;20947;-72
2021/05/18 07:40:06;;;;;;;6.03;2.83;;;15.90;75.00;;;;;;2342844;54;20958;-74
2021/05/18 07:42:32;;;;;;;4.75;2.47;;;15.90;74.80;;;;;;2343271;54;20931;-75
2021/05/18 07:45:00;;;;;;;3.00;1.42;;;15.90;73.80;;;;;;2344416;54;21932;-72
2021/05/18 07:47:31;;;;;;;2.95;1.40;;;15.90;74.00;;;;;;2582170;52;21810;-72
2021/05/18 07:50:11;;;;;;;4.22;1.08;;;15.90;74.00;;;;;;2343607;54;21469;-71
2021/05/18 08:01:16;;;;;;;2.53;0.70;;;15.90;72.90;;;;;;2343160;54;20926;-73
2021/05/18 08:06:27;;;;;;;1.95;0.60;;;15.80;72.70;;;;;;2519366;52;20927;-74
2021/05/18 08:08:54;;;;;;;2.40;0.75;;;15.70;72.60;;;;;;2343572;54;20992;-73
2021/05/18 08:11:20;;;;;;;4.07;1.08;;;15.70;72.80;;;;;;2338555;54;20935;-73
2021/05/18 08:13:52;;;;;;;2.95;0.80;;;15.70;73.10;;;;;;2342877;54;20901;-73
2021/05/18 10:23:40;;;;;;;1.70;0.57;;;17.70;70.70;;;;;;2359990;53;21004;-74
2021/05/18 10:35:53;;;;;;;1.30;0.40;;;17.60;71.90;;;;;;2373021;52;21002;-73
2021/05/18 10:38:24;;;;;;;1.42;0.50;;;17.50;70.90;;;;;;2343959;54;21759;-72
2021/05/18 10:41:15;;;;;;;1.52;0.32;;;17.50;72.00;;;;;;2344250;54;20919;-74
2021/05/18 10:43:42;;;;;;;2.70;0.68;;;17.40;70.90;;;;;;2502783;54;20964;-73
2021/05/18 10:46:22;;;;;;;1.45;0.50;;;17.40;71.50;;;;;;2351599;54;21051;-74
2021/05/18 10:48:53;;;;;;;1.70;0.60;;;17.40;71.00;;;;;;2316408;55;21784;-74
2021/05/18 10:51:40;;;;;;;3.28;0.70;;;17.30;71.00;;;;;;2484572;53;21029;-74
2021/05/18 10:54:23;;;;;;;3.47;0.95;;;17.20;70.70;;;;;;2356429;53;20940;-74
2021/05/18 10:57:01;;;;;;;5.37;0.85;;;17.20;70.10;;;;;;2324201;54;21001;-74
2021/05/18 10:59:38;;;;;;;4.50;1.30;;;17.10;70.00;;;;;;2325159;53;20937;-71
2021/05/18 11:02:20;;;;;;;2.50;0.82;;;17.00;69.20;;;;;;2317768;54;21048;-72
2021/05/18 11:04:53;;;;;;;4.20;0.68;;;16.90;69.50;;;;;;2563488;53;21556;-74
2021/05/18 11:07:22;;;;;;;1.45;0.50;;;16.80;69.30;;;;;;2368801;53;20920;-73
2021/05/18 11:09:49;;;;;;;1.92;0.50;;;16.70;70.40;;;;;;2419842;53;21041;-72
2021/05/18 11:12:19;;;;;;;13.23;0.82;;;16.70;71.30;;;;;;2331055;54;20965;-76
2021/05/18 11:14:50;;;;;;;1.73;0.73;;;16.70;71.50;;;;;;2338397;54;20910;-71
2021/05/18 11:17:22;;;;;;;2.58;0.70;;;16.70;72.20;;;;;;2377751;53;21568;-74
2021/05/18 11:19:51;;;;;;;1.10;0.50;;;16.70;72.00;;;;;;2588800;53;20921;-73
2021/05/18 11:23:18;;;;;;;1.55;0.43;;;16.80;72.90;;;;;;2342926;54;21073;-72
2021/05/18 11:25:55;;;;;;;1.05;0.40;;;16.90;73.40;;;;;;2378540;54;21024;-70
2021/05/18 11:28:29;;;;;;;2.05;0.40;;;17.00;73.00;;;;;;2322916;53;20929;-72
2021/05/18 11:30:57;;;;;;;2.70;0.40;;;17.10;74.00;;;;;;2317008;53;21493;-76
2021/05/18 11:33:34;;;;;;;0.68;0.30;;;17.20;74.30;;;;;;2316920;53;21406;-76
2021/05/18 11:36:16;;;;;;;1.75;0.50;;;17.30;72.80;;;;;;2316455;53;20985;-73
2021/05/18 11:38:56;;;;;;;1.95;0.50;;;17.40;72.50;;;;;;2335930;53;21016;-74
2021/05/18 11:41:23;;;;;;;2.33;0.70;;;17.50;70.40;;;;;;2316848;53;20925;-75
2021/05/18 11:43:57;;;;;;;3.53;0.80;;;17.50;71.50;;;;;;2464531;53;20957;-75
2021/05/18 11:46:24;;;;;;;2.97;0.90;;;17.60;71.00;;;;;;2331490;53;20941;-75
2021/05/18 11:49:01;;;;;;;2.60;0.85;;;17.60;69.90;;;;;;2338397;53;20960;-76
2021/05/18 11:51:32;;;;;;;1.65;0.65;;;17.60;68.30;;;;;;2564156;53;20925;-75
2021/05/18 11:54:06;;;;;;;2.12;0.75;;;17.60;69.50;;;;;;2329783;53;20993;-72
2021/05/18 11:56:34;;;;;;;3.35;0.95;;;17.60;70.00;;;;;;2325469;53;20968;-73
2021/05/18 11:59:14;;;;;;;2.90;1.10;;;17.60;70.20;;;;;;2334004;53;20952;-73
2021/05/18 12:02:05;;;;;;;2.85;0.65;;;17.70;69.70;;;;;;2322116;53;21000;-73
2021/05/18 12:04:32;;;;;;;2.40;0.73;;;17.70;69.70;;;;;;2322066;53;20974;-73
2021/05/18 12:07:00;;;;;;;1.67;0.68;;;17.70;71.40;;;;;;2312692;54;21090;-72
2021/05/18 12:09:27;;;;;;;2.25;0.55;;;17.80;71.60;;;;;;2310741;55;21301;-74
2021/05/18 12:11:57;;;;;;;2.00;0.40;;;17.80;71.30;;;;;;2323974;54;20980;-74
2021/05/18 12:14:24;;;;;;;1.42;0.60;;;17.90;71.00;;;;;;2554279;53;21669;-73
2021/05/18 12:16:53;;;;;;;1.30;0.40;;;18.00;70.40;;;;;;2314175;55;20971;-72
2021/05/18 12:19:20;;;;;;;1.10;0.40;;;18.10;70.30;;;;;;2436311;53;20953;-71
2021/05/18 12:21:53;;;;;;;3.37;0.30;;;18.10;70.20;;;;;;2344136;54;20929;-71
2021/05/18 12:24:24;;;;;;;1.65;0.30;;;18.10;69.70;;;;;;2343330;54;21709;-74
2021/05/18 12:26:58;;;;;;;1.45;0.30;;;18.10;69.30;;;;;;2343961;55;20889;-73
2021/05/18 12:30:01;;;;;;;2.87;0.52;;;18.20;69.70;;;;;;2336914;54;21007;-74
2021/05/18 12:32:33;;;;;;;2.30;0.80;;;18.30;68.60;;;;;;2570035;53;21037;-72
2021/05/18 12:35:22;;;;;;;2.53;0.65;;;18.40;71.00;;;;;;2301274;54;21312;-71
2021/05/18 12:37:52;;;;;;;1.25;0.43;;;18.50;69.50;;;;;;2328521;54;20953;-73
2021/05/18 12:40:27;;;;;;;0.65;0.20;;;18.60;71.60;;;;;;2565542;53;21465;-74
2021/05/18 12:42:54;;;;;;;2.30;0.88;;;18.70;70.60;;;;;;2343400;55;21033;-73
2021/05/18 12:45:22;;;;;;;3.65;1.10;;;18.70;71.30;;;;;;2320088;54;21028;-73
2021/05/18 12:47:53;;;;;;;1.85;0.60;;;18.80;71.70;;;;;;2346593;54;21493;-73
2021/05/18 12:50:20;;;;;;;1.73;0.60;;;18.90;71.60;;;;;;2343535;54;21458;-73
2021/05/18 12:52:50;;;;;;;1.35;0.57;;;18.90;73.10;;;;;;2343934;55;21080;-73
2021/05/18 12:55:25;;;;;;;1.80;0.68;;;19.10;71.50;;;;;;2343943;55;21000;-73
2021/05/18 12:58:06;;;;;;;4.50;0.55;;;19.20;72.20;;;;;;2333657;54;20989;-73
2021/05/18 13:00:44;;;;;;;1.62;0.50;;;19.40;70.10;;;;;;2344382;55;20928;-73
2021/05/18 13:03:12;;;;;;;1.77;0.50;;;19.50;70.40;;;;;;2338985;54;21013;-73
2021/05/18 13:05:38;;;;;;;1.12;0.37;;;19.60;70.40;;;;;;2330102;54;21346;-74
2021/05/18 13:08:24;;;;;;;1.42;0.50;;;19.70;70.60;;;;;;2352313;53;20940;-73
2021/05/18 13:11:07;;;;;;;1.87;0.52;;;19.70;69.80;;;;;;2344227;54;20969;-72
2021/05/18 13:13:55;;;;;;;1.87;0.50;;;19.90;73.00;;;;;;2575712;53;20933;-74
2021/05/18 13:16:23;;;;;;;2.60;0.90;;;20.10;72.00;;;;;;2338202;54;20925;-71
2021/05/18 13:20:45;;;;;;;2.45;0.50;;;20.20;74.10;;;;;;2343563;54;21036;-74
2021/05/18 13:23:20;;;;;;;1.15;0.40;;;20.40;66.80;;;;;;2331803;54;21039;-74
2021/05/18 13:28:32;;;;;;;1.20;0.40;;;20.40;68.70;;;;;;2339780;54;21000;-74
2021/05/18 13:30:59;;;;;;;1.50;0.60;;;20.30;68.80;;;;;;2325420;54;20990;-73
2021/05/18 13:33:25;;;;;;;1.00;0.30;;;20.30;68.00;;;;;;2513149;53;20964;-73
2021/05/18 13:35:54;;;;;;;1.55;0.45;;;20.20;68.00;;;;;;2324596;54;21028;-74
2021/05/18 13:38:20;;;;;;;1.85;0.57;;;20.10;67.80;;;;;;2331785;54;20925;-72
2021/05/18 13:40:47;;;;;;;4.95;0.45;;;20.00;66.90;;;;;;2295642;54;20948;-74
2021/05/18 13:43:13;;;;;;;3.08;0.40;;;19.70;65.30;;;;;;2342610;54;21021;-74
2021/05/18 13:45:40;;;;;;;2.12;0.37;;;19.50;62.70;;;;;;2334344;54;20912;-76
2021/05/18 13:48:07;;;;;;;1.48;0.28;;;19.20;61.40;;;;;;2357177;54;20989;-77
2021/05/18 13:50:35;;;;;;;1.23;0.20;;;18.80;60.10;;;;;;2405808;53;20981;-76
2021/05/18 13:53:01;;;;;;;1.87;0.22;;;18.50;58.60;;;;;;2363036;54;20933;-76
2021/05/18 13:55:28;;;;;;;1.40;0.40;;;18.10;58.50;;;;;;2343808;54;21016;-76
2021/05/18 13:57:54;;;;;;;1.83;0.57;;;17.70;59.90;;;;;;2344850;54;20913;-75
2021/05/18 14:00:21;;;;;;;4.22;1.25;;;17.40;62.80;;;;;;2394566;53;21786;-76
2021/05/18 14:02:48;;;;;;;3.90;0.90;;;17.10;65.60;;;;;;2344317;55;20983;-76
2021/05/18 14:05:18;;;;;;;2.60;0.88;;;16.90;68.40;;;;;;2350285;53;21494;-75
2021/05/18 14:08:27;;;;;;;1.25;0.40;;;16.80;70.60;;;;;;2338885;54;21858;-76
2021/05/18 14:11:05;;;;;;;2.67;1.12;;;16.70;70.90;;;;;;2346006;54;20945;-77
2021/05/18 14:13:36;;;;;;;3.72;1.65;;;16.70;73.00;;;;;;2453958;53;20984;-76
2021/05/18 14:16:02;;;;;;;4.22;1.00;;;16.70;74.00;;;;;;2564940;52;21025;-75
2021/05/18 14:18:31;;;;;;;2.97;0.73;;;16.70;74.20;;;;;;2338074;54;21041;-75
2021/05/18 14:20:58;;;;;;;1.85;0.73;;;16.70;74.50;;;;;;2339413;54;21540;-76
2021/05/18 14:23:34;;;;;;;1.70;0.55;;;16.80;75.40;;;;;;2402975;52;20970;-75
2021/05/18 14:26:00;;;;;;;1.83;0.52;;;16.80;75.90;;;;;;2368560;53;21390;-76
2021/05/18 14:28:35;;;;;;;1.67;0.50;;;16.90;76.40;;;;;;2329611;54;20961;-74
2021/05/18 14:31:04;;;;;;;1.90;0.82;;;17.00;76.50;;;;;;2341722;54;20945;-76
2021/05/18 14:33:30;;;;;;;1.20;0.40;;;17.10;76.50;;;;;;2341823;54;21064;-75
2021/05/18 14:35:57;;;;;;;1.20;0.50;;;17.20;76.50;;;;;;2329630;53;21039;-75
2021/05/18 14:38:25;;;;;;;0.77;0.40;;;17.30;76.60;;;;;;2358593;54;20933;-74
2021/05/18 14:46:49;;;;;;;1.67;0.43;;;17.60;76.10;;;;;;2331612;53;21027;-76
2021/05/18 14:57:32;;;;;;;3.70;0.60;;;17.80;75.80;;;;;;2370905;53;21100;-75
2021/05/18 14:59:59;;;;;;;1.77;0.45;;;17.90;75.50;;;;;;2368648;53;21310;-75
2021/05/18 15:02:25;;;;;;;2.05;0.70;;;18.10;76.10;;;;;;2313762;54;20985;-75
2021/05/18 15:04:51;;;;;;;1.55;0.40;;;18.10;76.00;;;;;;2317096;54;20953;-74
2021/05/18 15:07:17;;;;;;;2.12;0.80;;;18.30;76.20;;;;;;2427828;53;20937;-74
2021/05/18 15:09:46;;;;;;;0.85;0.40;;;18.40;76.30;;;;;;2313792;54;21029;-76
2021/05/18 15:12:12;;;;;;;0.73;0.30;;;18.50;76.40;;;;;;2384350;53;21694;-74
2021/05/18 15:14:38;;;;;;;1.23;0.40;;;18.60;76.40;;;;;;2315379;53;20968;-74
2021/05/18 15:17:05;;;;;;;1.17;0.47;;;18.70;76.20;;;;;;2547098;53;21801;-74
2021/05/18 15:19:31;;;;;;;1.65;0.50;;;18.70;75.90;;;;;;2321012;53;21762;-75
2021/05/18 15:21:59;;;;;;;1.77;0.50;;;18.80;75.30;;;;;;2510413;53;21000;-74
2021/05/18 15:24:28;;;;;;;1.02;0.32;;;18.80;74.50;;;;;;2312045;53;20993;-75
2021/05/18 15:26:55;;;;;;;1.40;0.50;;;18.90;74.20;;;;;;2330622;54;21012;-75
2021/05/18 15:29:22;;;;;;;1.02;0.30;;;19.00;73.30;;;;;;2343985;55;21057;-76
2021/05/18 15:31:51;;;;;;;1.05;0.40;;;19.00;72.60;;;;;;2343697;57;21057;-75
2021/05/18 15:34:17;;;;;;;2.75;0.70;;;19.00;71.20;;;;;;2321399;54;20969;-74
2021/05/18 15:36:44;;;;;;;1.37;0.30;;;18.90;71.30;;;;;;2323190;54;20957;-76
2021/05/18 15:39:11;;;;;;;1.98;0.50;;;18.90;71.10;;;;;;2567267;53;20926;-74
2021/05/18 15:41:38;;;;;;;0.70;0.35;;;18.90;71.20;;;;;;2326651;53;21047;-73
2021/05/18 15:44:05;;;;;;;1.50;0.40;;;18.80;71.10;;;;;;2334495;54;20964;-74
2021/05/18 15:46:32;;;;;;;1.77;0.50;;;18.70;70.70;;;;;;2495490;53;20957;-74
2021/05/18 15:48:59;;;;;;;2.08;0.40;;;18.70;70.90;;;;;;2344044;54;20968;-74
2021/05/18 15:51:26;;;;;;;1.20;0.50;;;18.60;71.00;;;;;;2321683;54;21789;-74
2021/05/18 15:53:52;;;;;;;1.42;0.50;;;18.60;71.30;;;;;;2318713;54;21386;-75
2021/05/18 15:56:18;;;;;;;2.08;0.47;;;18.50;71.40;;;;;;2573460;53;20929;-74
2021/05/18 15:58:44;;;;;;;0.98;0.40;;;18.40;71.10;;;;;;2342127;55;21657;-74
2021/05/18 16:01:11;;;;;;;1.23;0.50;;;18.40;71.00;;;;;;2396847;53;20913;-74
2021/05/18 16:03:43;;;;;;;1.40;0.52;;;18.30;70.80;;;;;;2341734;55;21016;-73
2021/05/18 16:06:09;;;;;;;;;;;18.30;70.60;;;;;;2345601;54;21049;-73
2021/05/18 16:11:48;;;;;;;3.00;1.20;;;18.10;70.40;;;;;;2306714;55;20989;-75
2021/05/18 16:14:14;;;;;;;1.95;0.73;;;18.00;70.40;;;;;;2329016;54;20909;-74
2021/05/18 16:16:41;;;;;;;0.75;0.25;;;17.80;70.50;;;;;;2329947;54;21599;-74
2021/05/18 16:19:07;;;;;;;2.12;0.50;;;17.70;70.50;;;;;;2327365;54;21005;-74
2021/05/18 16:21:34;;;;;;;1.55;0.60;;;17.60;70.40;;;;;;2423886;53;21512;-75
2021/05/18 16:24:00;;;;;;;1.77;0.50;;;17.50;70.30;;;;;;2338718;54;20914;-74
2021/05/18 16:26:28;;;;;;;1.08;0.50;;;17.40;70.40;;;;;;2323113;54;20977;-73
2021/05/18 16:28:54;;;;;;;1.80;0.50;;;17.30;70.70;;;;;;2341800;54;20945;-74
2021/05/18 16:31:20;;;;;;;1.73;0.60;;;17.20;70.60;;;;;;2341292;54;20957;-74
2021/05/18 16:33:47;;;;;;;1.50;0.60;;;17.10;70.00;;;;;;2324015;54;20925;-74
2021/05/18 16:36:15;;;;;;;1.75;0.50;;;17.00;69.90;;;;;;2588668;53;21036;-75
2021/05/18 16:38:42;;;;;;;1.15;0.40;;;16.90;70.10;;;;;;2342268;54;20929;-75
2021/05/18 16:41:20;;;;;;;1.33;0.50;;;16.90;70.70;;;;;;2342242;54;21716;-74
2021/05/18 16:43:46;;;;;;;1.30;0.40;;;16.80;71.10;;;;;;2342260;54;21559;-74
2021/05/18 16:46:13;;;;;;;1.62;0.50;;;16.70;71.20;;;;;;2341097;54;20993;-75
2021/05/18 16:48:41;;;;;;;2.60;0.60;;;16.70;71.50;;;;;;2344214;54;20993;-75
2021/05/18 16:51:09;;;;;;;1.45;0.50;;;16.60;71.40;;;;;;2389517;54;21778;-75
2021/05/18 16:53:36;;;;;;;1.67;0.90;;;16.60;71.70;;;;;;2338516;54;21034;-74
2021/05/18 16:56:03;;;;;;;1.58;0.40;;;16.50;71.90;;;;;;2500703;53;20909;-74
2021/05/18 16:58:30;;;;;;;2.75;0.70;;;16.50;72.10;;;;;;2368244;53;20973;-74
2021/05/18 17:00:56;;;;;;;1.20;0.50;;;16.50;72.20;;;;;;2342875;54;20985;-74
2021/05/18 17:03:22;;;;;;;2.20;0.70;;;16.40;72.20;;;;;;2588538;53;21559;-75
2021/05/18 17:05:51;;;;;;;2.12;0.70;;;16.40;72.20;;;;;;2342066;55;20925;-74
2021/05/18 17:08:19;;;;;;;2.12;0.68;;;16.40;72.20;;;;;;2330555;54;20940;-75
2021/05/18 17:10:45;;;;;;;0.85;0.45;;;16.30;72.10;;;;;;2333589;54;21560;-75
2021/05/18 17:13:11;;;;;;;1.70;0.52;;;16.30;72.40;;;;;;2322327;54;20977;-75
2021/05/18 17:15:38;;;;;;;1.92;0.50;;;16.20;72.40;;;;;;2337918;54;20961;-74
2021/05/18 17:18:04;;;;;;;2.15;0.60;;;16.30;72.50;;;;;;2364197;54;20969;-74
2021/05/18 17:20:32;;;;;;;1.12;0.47;;;16.20;72.50;;;;;;2342085;54;20937;-74
2021/05/18 17:22:59;;;;;;;1.10;0.57;;;16.20;72.60;;;;;;2588300;53;20961;-74
2021/05/18 17:25:25;;;;;;;2.97;0.80;;;16.20;72.70;;;;;;2342993;55;21870;-75
2021/05/18 17:27:51;;;;;;;2.37;0.70;;;16.20;72.60;;;;;;2331527;54;21057;-74
2021/05/18 17:30:20;;;;;;;1.52;0.47;;;16.10;72.40;;;;;;2327734;54;21834;-74
2021/05/18 17:32:46;;;;;;;1.42;0.45;;;16.10;72.30;;;;;;2323643;54;21872;-74
2021/05/18 17:35:14;;;;;;;2.08;0.65;;;16.10;72.40;;;;;;2326814;54;20942;-74
2021/05/18 17:37:42;;;;;;;2.50;0.60;;;16.00;72.40;;;;;;2325790;54;21496;-74
2021/05/18 17:40:11;;;;;;;2.37;0.98;;;16.00;72.60;;;;;;2337859;54;20968;-74
2021/05/18 17:42:38;;;;;;;3.25;0.88;;;16.00;72.60;;;;;;2341769;54;20924;-74
2021/05/18 17:45:15;;;;;;;2.72;0.80;;;16.00;72.90;;;;;;2487990;53;20902;-74
2021/05/18 17:47:41;;;;;;;2.83;1.55;;;15.90;72.80;;;;;;2341948;55;20961;-74
2021/05/18 17:50:09;;;;;;;5.90;3.28;;;15.90;72.90;;;;;;2341900;54;21488;-74
2021/05/18 17:52:36;;;;;;;5.47;3.15;;;15.90;73.10;;;;;;2489517;53;21039;-74
2021/05/18 17:55:04;;;;;;;5.47;2.22;;;15.90;73.30;;;;;;2345114;54;20985;-74
2021/05/18 17:57:30;;;;;;;4.75;2.00;;;15.90;73.30;;;;;;2445068;53;20957;-74
2021/05/18 17:59:56;;;;;;;3.37;1.50;;;15.80;73.30;;;;;;2341396;55;21032;-73
2021/05/18 18:02:23;;;;;;;2.40;1.00;;;15.90;73.50;;;;;;2341763;55;20933;-74
2021/05/18 18:04:49;;;;;;;2.03;0.90;;;15.90;73.60;;;;;;2412169;53;21441;-74
2021/05/18 18:07:22;;;;;;;2.47;0.85;;;15.80;73.60;;;;;;2421138;53;22113;-74